sensor_id;sensor_type;location;lat;lon;timestamp;P1;durP1;ratioP1;P2;durP2;ratioP2
48241;SDS011;34041;51.812;4.622;2023-05-23T00:01:02;24.30;;;12.77;;
48241;SDS011;34041;51.812;4.622;2023-05-23T00:04:02;22.33;;;11.23;;
48241;SDS011;34041;51.812;4.622;2023-05-23T00:07:03;18.45;;;11.40;;
48241;SDS011;34041;51.812;4.622;2023-05-23T00:10:03;20.38;;;12.57;;
48241;SDS011;34041;51.812;4.622;2023-05-23T00:13:03;26.70;;;12.00;;
48241;SDS011;34041;51.812;4.622;2023-05-23T00:16:05;25.00;;;11.68;;
48241;SDS011;34041;51.812;4.622;2023-05-23T00:19:08;19.90;;;10.97;;
48241;SDS011;34041;51.812;4.622;2023-05-23T00:22:10;22.55;;;11.85;;
48241;SDS011;34041;51.812;4.622;2023-05-23T00:25:10;25.80;;;12.55;;
48241;SDS011;34041;51.812;4.622;2023-05-23T00:28:11;26.48;;;12.48;;
48241;SDS011;34041;51.812;4.622;2023-05-23T00:31:11;23.57;;;12.07;;
48241;SDS011;34041;51.812;4.622;2023-05-23T00:34:14;24.70;;;11.37;;
48241;SDS011;34041;51.812;4.622;2023-05-23T00:37:16;29.45;;;13.05;;
48241;SDS011;34041;51.812;4.622;2023-05-23T00:40:17;22.83;;;11.98;;
48241;SDS011;34041;51.812;4.622;2023-05-23T00:43:17;17.73;;;9.65;;
48241;SDS011;34041;51.812;4.622;2023-05-23T00:46:19;19.08;;;9.52;;
48241;SDS011;34041;51.812;4.622;2023-05-23T00:49:19;17.23;;;10.00;;
48241;SDS011;34041;51.812;4.622;2023-05-23T00:52:20;16.27;;;9.10;;
48241;SDS011;34041;51.812;4.622;2023-05-23T00:55:21;16.02;;;9.45;;
48241;SDS011;34041;51.812;4.622;2023-05-23T00:58:22;13.18;;;8.50;;
48241;SDS011;34041;51.812;4.622;2023-05-23T01:01:22;18.13;;;8.35;;
48241;SDS011;34041;51.812;4.622;2023-05-23T01:04:23;8.80;;;6.80;;
48241;SDS011;34041;51.812;4.622;2023-05-23T01:07:25;14.77;;;7.72;;
48241;SDS011;34041;51.812;4.622;2023-05-23T01:10:26;10.65;;;7.25;;
48241;SDS011;34041;51.812;4.622;2023-05-23T01:13:34;12.77;;;7.68;;
48241;SDS011;34041;51.812;4.622;2023-05-23T01:16:46;9.60;;;7.15;;
48241;SDS011;34041;51.812;4.622;2023-05-23T01:23:10;17.58;;;6.57;;
48241;SDS011;34041;51.812;4.622;2023-05-23T01:26:17;12.32;;;7.55;;
48241;SDS011;34041;51.812;4.622;2023-05-23T01:29:31;11.13;;;6.30;;
48241;SDS011;34041;51.812;4.622;2023-05-23T01:32:31;11.95;;;6.03;;
48241;SDS011;34041;51.812;4.622;2023-05-23T01:35:32;12.38;;;7.13;;
48241;SDS011;34041;51.812;4.622;2023-05-23T01:38:32;12.93;;;6.63;;
48241;SDS011;34041;51.812;4.622;2023-05-23T01:41:32;12.07;;;5.63;;
48241;SDS011;34041;51.812;4.622;2023-05-23T01:44:33;14.10;;;6.87;;
48241;SDS011;34041;51.812;4.622;2023-05-23T01:47:33;15.65;;;6.22;;
48241;SDS011;34041;51.812;4.622;2023-05-23T01:50:34;8.40;;;6.13;;
48241;SDS011;34041;51.812;4.622;2023-05-23T01:53:35;10.95;;;7.28;;
48241;SDS011;34041;51.812;4.622;2023-05-23T01:56:35;12.75;;;7.57;;
48241;SDS011;34041;51.812;4.622;2023-05-23T01:59:36;13.73;;;7.20;;
48241;SDS011;34041;51.812;4.622;2023-05-23T02:02:37;12.63;;;7.60;;
48241;SDS011;34041;51.812;4.622;2023-05-23T02:05:37;13.73;;;8.23;;
48241;SDS011;34041;51.812;4.622;2023-05-23T02:08:38;12.30;;;7.37;;
48241;SDS011;34041;51.812;4.622;2023-05-23T02:11:38;13.47;;;7.07;;
48241;SDS011;34041;51.812;4.622;2023-05-23T02:14:38;12.32;;;6.85;;
48241;SDS011;34041;51.812;4.622;2023-05-23T02:17:38;17.93;;;7.23;;
48241;SDS011;34041;51.812;4.622;2023-05-23T02:20:40;17.58;;;8.48;;
48241;SDS011;34041;51.812;4.622;2023-05-23T02:23:40;19.73;;;7.37;;
48241;SDS011;34041;51.812;4.622;2023-05-23T02:26:40;17.83;;;7.30;;
48241;SDS011;34041;51.812;4.622;2023-05-23T02:29:40;13.98;;;7.07;;
48241;SDS011;34041;51.812;4.622;2023-05-23T02:32:41;19.27;;;7.37;;
48241;SDS011;34041;51.812;4.622;2023-05-23T02:35:41;13.27;;;7.72;;
48241;SDS011;34041;51.812;4.622;2023-05-23T02:38:41;20.07;;;7.53;;
48241;SDS011;34041;51.812;4.622;2023-05-23T02:41:42;12.80;;;6.40;;
48241;SDS011;34041;51.812;4.622;2023-05-23T02:44:42;16.13;;;6.53;;
48241;SDS011;34041;51.812;4.622;2023-05-23T02:47:42;10.27;;;6.53;;
48241;SDS011;34041;51.812;4.622;2023-05-23T02:50:42;12.77;;;6.55;;
48241;SDS011;34041;51.812;4.622;2023-05-23T02:53:43;11.87;;;6.53;;
48241;SDS011;34041;51.812;4.622;2023-05-23T02:56:44;18.87;;;7.83;;
48241;SDS011;34041;51.812;4.622;2023-05-23T02:59:44;15.48;;;7.18;;
48241;SDS011;34041;51.812;4.622;2023-05-23T03:02:44;12.73;;;6.83;;
48241;SDS011;34041;51.812;4.622;2023-05-23T03:05:45;13.52;;;7.35;;
48241;SDS011;34041;51.812;4.622;2023-05-23T03:08:45;15.20;;;7.13;;
48241;SDS011;34041;51.812;4.622;2023-05-23T03:11:45;14.65;;;6.82;;
48241;SDS011;34041;51.812;4.622;2023-05-23T03:14:46;19.83;;;6.60;;
48241;SDS011;34041;51.812;4.622;2023-05-23T03:17:46;16.73;;;7.55;;
48241;SDS011;34041;51.812;4.622;2023-05-23T03:20:46;17.60;;;7.23;;
48241;SDS011;34041;51.812;4.622;2023-05-23T03:23:46;19.98;;;7.75;;
48241;SDS011;34041;51.812;4.622;2023-05-23T03:26:47;16.20;;;6.50;;
48241;SDS011;34041;51.812;4.622;2023-05-23T03:29:47;15.95;;;7.28;;
48241;SDS011;34041;51.812;4.622;2023-05-23T03:32:47;19.83;;;8.53;;
48241;SDS011;34041;51.812;4.622;2023-05-23T03:35:48;17.23;;;6.20;;
48241;SDS011;34041;51.812;4.622;2023-05-23T03:38:49;13.75;;;6.47;;
48241;SDS011;34041;51.812;4.622;2023-05-23T03:41:49;15.97;;;6.07;;
48241;SDS011;34041;51.812;4.622;2023-05-23T03:44:50;27.90;;;8.50;;
48241;SDS011;34041;51.812;4.622;2023-05-23T03:47:50;12.50;;;5.57;;
48241;SDS011;34041;51.812;4.622;2023-05-23T03:50:50;13.07;;;6.17;;
48241;SDS011;34041;51.812;4.622;2023-05-23T03:53:50;12.30;;;5.63;;
48241;SDS011;34041;51.812;4.622;2023-05-23T03:56:50;11.73;;;4.93;;
48241;SDS011;34041;51.812;4.622;2023-05-23T03:59:51;16.85;;;5.47;;
48241;SDS011;34041;51.812;4.622;2023-05-23T04:02:51;13.85;;;6.00;;
48241;SDS011;34041;51.812;4.622;2023-05-23T04:05:52;13.40;;;5.05;;
48241;SDS011;34041;51.812;4.622;2023-05-23T04:08:52;14.70;;;4.63;;
48241;SDS011;34041;51.812;4.622;2023-05-23T04:11:52;17.27;;;5.03;;
48241;SDS011;34041;51.812;4.622;2023-05-23T04:14:52;9.47;;;4.70;;
48241;SDS011;34041;51.812;4.622;2023-05-23T04:17:53;14.45;;;4.65;;
48241;SDS011;34041;51.812;4.622;2023-05-23T04:20:53;15.35;;;4.65;;
48241;SDS011;34041;51.812;4.622;2023-05-23T04:23:53;11.77;;;5.13;;
48241;SDS011;34041;51.812;4.622;2023-05-23T04:26:53;11.00;;;4.83;;
48241;SDS011;34041;51.812;4.622;2023-05-23T04:29:55;12.10;;;5.85;;
48241;SDS011;34041;51.812;4.622;2023-05-23T04:32:57;8.75;;;3.85;;
48241;SDS011;34041;51.812;4.622;2023-05-23T04:35:58;14.02;;;4.32;;
48241;SDS011;34041;51.812;4.622;2023-05-23T04:38:59;9.27;;;4.10;;
48241;SDS011;34041;51.812;4.622;2023-05-23T04:41:59;11.17;;;3.87;;
48241;SDS011;34041;51.812;4.622;2023-05-23T04:45:00;8.23;;;3.80;;
48241;SDS011;34041;51.812;4.622;2023-05-23T04:48:01;11.07;;;5.03;;
48241;SDS011;34041;51.812;4.622;2023-05-23T04:51:02;14.63;;;4.65;;
48241;SDS011;34041;51.812;4.622;2023-05-23T04:54:05;14.57;;;4.47;;
48241;SDS011;34041;51.812;4.622;2023-05-23T04:57:05;7.80;;;4.32;;
48241;SDS011;34041;51.812;4.622;2023-05-23T05:00:06;12.88;;;4.47;;
48241;SDS011;34041;51.812;4.622;2023-05-23T05:03:09;10.68;;;4.88;;
48241;SDS011;34041;51.812;4.622;2023-05-23T05:06:10;11.75;;;5.13;;
48241;SDS011;34041;51.812;4.622;2023-05-23T05:09:11;13.90;;;5.47;;
48241;SDS011;34041;51.812;4.622;2023-05-23T05:12:11;11.10;;;5.03;;
48241;SDS011;34041;51.812;4.622;2023-05-23T05:15:12;13.27;;;5.43;;
48241;SDS011;34041;51.812;4.622;2023-05-23T05:18:12;13.80;;;5.60;;
48241;SDS011;34041;51.812;4.622;2023-05-23T05:21:12;14.82;;;6.18;;
48241;SDS011;34041;51.812;4.622;2023-05-23T05:24:13;13.27;;;6.30;;
48241;SDS011;34041;51.812;4.622;2023-05-23T05:27:14;15.95;;;6.47;;
48241;SDS011;34041;51.812;4.622;2023-05-23T05:30:14;13.83;;;6.63;;
48241;SDS011;34041;51.812;4.622;2023-05-23T05:33:15;15.32;;;6.55;;
48241;SDS011;34041;51.812;4.622;2023-05-23T05:36:18;23.05;;;7.70;;
48241;SDS011;34041;51.812;4.622;2023-05-23T05:39:18;14.50;;;6.38;;
48241;SDS011;34041;51.812;4.622;2023-05-23T05:42:19;15.43;;;5.68;;
48241;SDS011;34041;51.812;4.622;2023-05-23T05:45:20;14.35;;;6.75;;
48241;SDS011;34041;51.812;4.622;2023-05-23T05:48:20;15.73;;;7.23;;
48241;SDS011;34041;51.812;4.622;2023-05-23T05:51:20;14.00;;;8.00;;
48241;SDS011;34041;51.812;4.622;2023-05-23T05:54:20;11.17;;;5.93;;
48241;SDS011;34041;51.812;4.622;2023-05-23T05:57:21;12.20;;;5.93;;
48241;SDS011;34041;51.812;4.622;2023-05-23T06:00:21;18.77;;;7.37;;
48241;SDS011;34041;51.812;4.622;2023-05-23T06:03:21;12.15;;;6.60;;
48241;SDS011;34041;51.812;4.622;2023-05-23T06:06:23;13.48;;;6.07;;
48241;SDS011;34041;51.812;4.622;2023-05-23T06:09:23;18.05;;;6.60;;
48241;SDS011;34041;51.812;4.622;2023-05-23T06:12:23;12.17;;;5.63;;
48241;SDS011;34041;51.812;4.622;2023-05-23T06:15:24;16.03;;;6.30;;
48241;SDS011;34041;51.812;4.622;2023-05-23T06:18:24;14.88;;;7.18;;
48241;SDS011;34041;51.812;4.622;2023-05-23T06:21:25;12.00;;;5.65;;
48241;SDS011;34041;51.812;4.622;2023-05-23T06:24:26;17.10;;;5.93;;
48241;SDS011;34041;51.812;4.622;2023-05-23T06:27:26;14.93;;;7.25;;
48241;SDS011;34041;51.812;4.622;2023-05-23T06:30:26;13.70;;;6.03;;
48241;SDS011;34041;51.812;4.622;2023-05-23T06:33:28;14.13;;;6.38;;
48241;SDS011;34041;51.812;4.622;2023-05-23T06:36:28;12.40;;;5.40;;
48241;SDS011;34041;51.812;4.622;2023-05-23T06:39:28;12.77;;;6.40;;
48241;SDS011;34041;51.812;4.622;2023-05-23T06:42:29;10.47;;;5.47;;
48241;SDS011;34041;51.812;4.622;2023-05-23T06:45:29;13.68;;;4.65;;
48241;SDS011;34041;51.812;4.622;2023-05-23T06:48:29;11.97;;;5.07;;
48241;SDS011;34041;51.812;4.622;2023-05-23T06:51:29;10.07;;;4.40;;
48241;SDS011;34041;51.812;4.622;2023-05-23T06:54:30;12.20;;;4.00;;
48241;SDS011;34041;51.812;4.622;2023-05-23T06:57:30;9.48;;;4.78;;
48241;SDS011;34041;51.812;4.622;2023-05-23T07:00:30;9.63;;;5.23;;
48241;SDS011;34041;51.812;4.622;2023-05-23T07:03:31;5.45;;;3.13;;
48241;SDS011;34041;51.812;4.622;2023-05-23T07:06:32;9.18;;;4.05;;
48241;SDS011;34041;51.812;4.622;2023-05-23T07:09:34;8.98;;;3.33;;
48241;SDS011;34041;51.812;4.622;2023-05-23T07:12:34;6.77;;;3.40;;
48241;SDS011;34041;51.812;4.622;2023-05-23T07:15:35;9.50;;;2.90;;
48241;SDS011;34041;51.812;4.622;2023-05-23T07:18:35;7.73;;;3.43;;
48241;SDS011;34041;51.812;4.622;2023-05-23T07:21:35;8.10;;;4.17;;
48241;SDS011;34041;51.812;4.622;2023-05-23T07:24:36;7.20;;;3.40;;
48241;SDS011;34041;51.812;4.622;2023-05-23T07:27:37;11.90;;;3.90;;
48241;SDS011;34041;51.812;4.622;2023-05-23T07:30:37;10.25;;;3.85;;
48241;SDS011;34041;51.812;4.622;2023-05-23T07:33:37;8.53;;;3.07;;
48241;SDS011;34041;51.812;4.622;2023-05-23T07:36:37;11.02;;;3.25;;
48241;SDS011;34041;51.812;4.622;2023-05-23T07:39:40;7.57;;;3.28;;
48241;SDS011;34041;51.812;4.622;2023-05-23T07:42:40;8.63;;;3.20;;
48241;SDS011;34041;51.812;4.622;2023-05-23T07:45:40;5.55;;;2.65;;
48241;SDS011;34041;51.812;4.622;2023-05-23T07:48:41;8.33;;;3.10;;
48241;SDS011;34041;51.812;4.622;2023-05-23T07:51:41;6.63;;;2.60;;
48241;SDS011;34041;51.812;4.622;2023-05-23T07:54:41;8.52;;;3.03;;
48241;SDS011;34041;51.812;4.622;2023-05-23T07:57:42;9.65;;;3.00;;
48241;SDS011;34041;51.812;4.622;2023-05-23T08:00:43;7.80;;;2.10;;
48241;SDS011;34041;51.812;4.622;2023-05-23T08:03:44;7.10;;;2.85;;
48241;SDS011;34041;51.812;4.622;2023-05-23T08:06:44;22.52;;;4.20;;
48241;SDS011;34041;51.812;4.622;2023-05-23T08:09:46;11.90;;;3.45;;
48241;SDS011;34041;51.812;4.622;2023-05-23T08:12:46;19.90;;;4.60;;
48241;SDS011;34041;51.812;4.622;2023-05-23T08:15:46;11.43;;;4.00;;
48241;SDS011;34041;51.812;4.622;2023-05-23T08:18:46;19.90;;;4.70;;
48241;SDS011;34041;51.812;4.622;2023-05-23T08:21:47;10.25;;;3.90;;
48241;SDS011;34041;51.812;4.622;2023-05-23T08:24:47;10.07;;;3.90;;
48241;SDS011;34041;51.812;4.622;2023-05-23T08:27:47;16.63;;;4.47;;
48241;SDS011;34041;51.812;4.622;2023-05-23T08:30:47;9.83;;;4.03;;
48241;SDS011;34041;51.812;4.622;2023-05-23T08:33:48;10.50;;;3.72;;
48241;SDS011;34041;51.812;4.622;2023-05-23T08:36:48;11.67;;;3.63;;
48241;SDS011;34041;51.812;4.622;2023-05-23T08:39:48;9.50;;;3.70;;
48241;SDS011;34041;51.812;4.622;2023-05-23T08:42:49;12.30;;;4.10;;
48241;SDS011;34041;51.812;4.622;2023-05-23T08:45:49;13.55;;;3.75;;
48241;SDS011;34041;51.812;4.622;2023-05-23T08:48:50;10.70;;;3.20;;
48241;SDS011;34041;51.812;4.622;2023-05-23T08:51:51;8.95;;;3.22;;
48241;SDS011;34041;51.812;4.622;2023-05-23T08:54:57;12.20;;;3.20;;
48241;SDS011;34041;51.812;4.622;2023-05-23T08:57:59;12.23;;;3.83;;
48241;SDS011;34041;51.812;4.622;2023-05-23T09:00:59;10.60;;;3.28;;
48241;SDS011;34041;51.812;4.622;2023-05-23T09:03:59;15.13;;;3.40;;
48241;SDS011;34041;51.812;4.622;2023-05-23T09:07:03;13.60;;;3.80;;
48241;SDS011;34041;51.812;4.622;2023-05-23T09:10:05;8.27;;;2.78;;
48241;SDS011;34041;51.812;4.622;2023-05-23T09:13:07;10.98;;;3.22;;
48241;SDS011;34041;51.812;4.622;2023-05-23T09:16:09;10.63;;;3.58;;
48241;SDS011;34041;51.812;4.622;2023-05-23T09:19:10;9.63;;;3.78;;
48241;SDS011;34041;51.812;4.622;2023-05-23T09:22:11;12.88;;;3.53;;
48241;SDS011;34041;51.812;4.622;2023-05-23T09:25:11;10.23;;;3.40;;
48241;SDS011;34041;51.812;4.622;2023-05-23T09:28:11;6.70;;;3.00;;
48241;SDS011;34041;51.812;4.622;2023-05-23T09:31:11;14.07;;;3.80;;
48241;SDS011;34041;51.812;4.622;2023-05-23T09:34:12;10.43;;;3.45;;
48241;SDS011;34041;51.812;4.622;2023-05-23T09:37:12;9.87;;;4.53;;
48241;SDS011;34041;51.812;4.622;2023-05-23T09:43:17;10.27;;;4.10;;
48241;SDS011;34041;51.812;4.622;2023-05-23T09:46:18;11.50;;;4.20;;
48241;SDS011;34041;51.812;4.622;2023-05-23T09:49:18;14.30;;;3.95;;
48241;SDS011;34041;51.812;4.622;2023-05-23T09:52:19;11.27;;;3.20;;
48241;SDS011;34041;51.812;4.622;2023-05-23T09:55:19;7.45;;;3.05;;
48241;SDS011;34041;51.812;4.622;2023-05-23T09:58:19;16.55;;;4.95;;
48241;SDS011;34041;51.812;4.622;2023-05-23T10:01:22;11.27;;;4.30;;
48241;SDS011;34041;51.812;4.622;2023-05-23T10:04:23;10.00;;;3.58;;
48241;SDS011;34041;51.812;4.622;2023-05-23T10:07:24;11.27;;;3.67;;
48241;SDS011;34041;51.812;4.622;2023-05-23T10:10:27;12.38;;;3.20;;
48241;SDS011;34041;51.812;4.622;2023-05-23T10:13:30;18.93;;;5.47;;
48241;SDS011;34041;51.812;4.622;2023-05-23T10:16:47;13.35;;;4.65;;
48241;SDS011;34041;51.812;4.622;2023-05-23T10:19:52;19.13;;;4.97;;
48241;SDS011;34041;51.812;4.622;2023-05-23T10:23:00;16.23;;;4.97;;
48241;SDS011;34041;51.812;4.622;2023-05-23T10:26:00;12.13;;;4.05;;
48241;SDS011;34041;51.812;4.622;2023-05-23T10:29:01;10.07;;;3.17;;
48241;SDS011;34041;51.812;4.622;2023-05-23T10:32:03;14.05;;;4.45;;
48241;SDS011;34041;51.812;4.622;2023-05-23T10:47:24;9.98;;;3.60;;
48241;SDS011;34041;51.812;4.622;2023-05-23T10:50:35;15.60;;;4.10;;
48241;SDS011;34041;51.812;4.622;2023-05-23T10:53:40;17.20;;;3.45;;
48241;SDS011;34041;51.812;4.622;2023-05-23T10:56:40;11.32;;;3.83;;
48241;SDS011;34041;51.812;4.622;2023-05-23T10:59:40;12.90;;;3.78;;
48241;SDS011;34041;51.812;4.622;2023-05-23T11:02:53;10.18;;;3.22;;
48241;SDS011;34041;51.812;4.622;2023-05-23T11:05:58;12.90;;;3.45;;
48241;SDS011;34041;51.812;4.622;2023-05-23T11:09:03;11.70;;;3.08;;
48241;SDS011;34041;51.812;4.622;2023-05-23T11:12:04;11.35;;;3.78;;
48241;SDS011;34041;51.812;4.622;2023-05-23T11:15:18;15.55;;;4.63;;
48241;SDS011;34041;51.812;4.622;2023-05-23T11:18:25;11.82;;;3.20;;
48241;SDS011;34041;51.812;4.622;2023-05-23T11:21:26;14.30;;;3.78;;
48241;SDS011;34041;51.812;4.622;2023-05-23T11:27:47;11.82;;;4.20;;
48241;SDS011;34041;51.812;4.622;2023-05-23T11:30:48;10.45;;;2.95;;
48241;SDS011;34041;51.812;4.622;2023-05-23T11:33:52;12.77;;;4.28;;
48241;SDS011;34041;51.812;4.622;2023-05-23T11:36:55;13.20;;;3.92;;
48241;SDS011;34041;51.812;4.622;2023-05-23T11:39:56;12.98;;;4.28;;
48241;SDS011;34041;51.812;4.622;2023-05-23T11:42:56;11.18;;;3.45;;
48241;SDS011;34041;51.812;4.622;2023-05-23T11:45:57;12.50;;;3.10;;
48241;SDS011;34041;51.812;4.622;2023-05-23T11:49:09;9.15;;;3.22;;
48241;SDS011;34041;51.812;4.622;2023-05-23T11:52:09;14.30;;;3.60;;
48241;SDS011;34041;51.812;4.622;2023-05-23T11:55:09;10.33;;;3.63;;
48241;SDS011;34041;51.812;4.622;2023-05-23T11:58:10;7.78;;;3.10;;
48241;SDS011;34041;51.812;4.622;2023-05-23T12:01:11;13.73;;;3.63;;
48241;SDS011;34041;51.812;4.622;2023-05-23T12:04:11;15.27;;;4.43;;
48241;SDS011;34041;51.812;4.622;2023-05-23T12:07:12;12.40;;;3.25;;
48241;SDS011;34041;51.812;4.622;2023-05-23T12:10:15;12.90;;;3.90;;
48241;SDS011;34041;51.812;4.622;2023-05-23T12:13:24;12.77;;;3.55;;
48241;SDS011;34041;51.812;4.622;2023-05-23T12:16:25;9.95;;;3.17;;
48241;SDS011;34041;51.812;4.622;2023-05-23T12:19:26;11.27;;;3.05;;
48241;SDS011;34041;51.812;4.622;2023-05-23T12:22:27;13.82;;;3.30;;
48241;SDS011;34041;51.812;4.622;2023-05-23T12:25:27;13.70;;;3.60;;
48241;SDS011;34041;51.812;4.622;2023-05-23T12:28:34;9.23;;;2.67;;
48241;SDS011;34041;51.812;4.622;2023-05-23T12:31:35;15.70;;;4.57;;
48241;SDS011;34041;51.812;4.622;2023-05-23T12:34:39;8.10;;;2.90;;
48241;SDS011;34041;51.812;4.622;2023-05-23T12:37:40;7.10;;;3.03;;
48241;SDS011;34041;51.812;4.622;2023-05-23T12:40:42;8.30;;;3.08;;
48241;SDS011;34041;51.812;4.622;2023-05-23T12:43:52;11.95;;;3.28;;
48241;SDS011;34041;51.812;4.622;2023-05-23T12:46:52;12.45;;;2.85;;
48241;SDS011;34041;51.812;4.622;2023-05-23T12:49:53;12.90;;;3.47;;
48241;SDS011;34041;51.812;4.622;2023-05-23T12:52:53;7.67;;;2.63;;
48241;SDS011;34041;51.812;4.622;2023-05-23T12:55:54;11.00;;;2.97;;
48241;SDS011;34041;51.812;4.622;2023-05-23T12:58:54;8.43;;;3.33;;
48241;SDS011;34041;51.812;4.622;2023-05-23T13:01:54;7.20;;;2.80;;
48241;SDS011;34041;51.812;4.622;2023-05-23T13:04:54;10.55;;;2.90;;
48241;SDS011;34041;51.812;4.622;2023-05-23T13:07:55;12.15;;;2.88;;
48241;SDS011;34041;51.812;4.622;2023-05-23T13:10:58;11.93;;;3.17;;
48241;SDS011;34041;51.812;4.622;2023-05-23T13:13:58;10.13;;;2.83;;
48241;SDS011;34041;51.812;4.622;2023-05-23T13:16:58;11.17;;;3.90;;
48241;SDS011;34041;51.812;4.622;2023-05-23T13:19:59;11.32;;;2.80;;
48241;SDS011;34041;51.812;4.622;2023-05-23T13:23:00;16.02;;;2.97;;
48241;SDS011;34041;51.812;4.622;2023-05-23T13:26:00;7.68;;;3.15;;
48241;SDS011;34041;51.812;4.622;2023-05-23T13:29:00;12.63;;;2.97;;
48241;SDS011;34041;51.812;4.622;2023-05-23T13:32:01;11.38;;;3.40;;
48241;SDS011;34041;51.812;4.622;2023-05-23T13:35:01;7.53;;;3.57;;
48241;SDS011;34041;51.812;4.622;2023-05-23T13:38:02;9.95;;;2.65;;
48241;SDS011;34041;51.812;4.622;2023-05-23T13:41:02;8.55;;;2.95;;
48241;SDS011;34041;51.812;4.622;2023-05-23T13:44:02;16.63;;;4.37;;
48241;SDS011;34041;51.812;4.622;2023-05-23T13:47:09;12.63;;;3.40;;
48241;SDS011;34041;51.812;4.622;2023-05-23T13:50:10;8.80;;;2.92;;
48241;SDS011;34041;51.812;4.622;2023-05-23T13:53:10;8.27;;;2.60;;
48241;SDS011;34041;51.812;4.622;2023-05-23T13:56:15;13.98;;;2.70;;
48241;SDS011;34041;51.812;4.622;2023-05-23T13:59:16;12.18;;;3.58;;
48241;SDS011;34041;51.812;4.622;2023-05-23T14:02:20;10.07;;;3.47;;
48241;SDS011;34041;51.812;4.622;2023-05-23T14:05:21;10.43;;;2.63;;
48241;SDS011;34041;51.812;4.622;2023-05-23T14:08:22;14.95;;;3.78;;
48241;SDS011;34041;51.812;4.622;2023-05-23T14:11:22;9.73;;;2.90;;
48241;SDS011;34041;51.812;4.622;2023-05-23T14:14:22;18.27;;;5.87;;
48241;SDS011;34041;51.812;4.622;2023-05-23T14:17:23;13.73;;;3.10;;
48241;SDS011;34041;51.812;4.622;2023-05-23T14:20:23;14.83;;;3.13;;
48241;SDS011;34041;51.812;4.622;2023-05-23T14:23:24;14.43;;;4.43;;
48241;SDS011;34041;51.812;4.622;2023-05-23T14:26:24;13.87;;;3.17;;
48241;SDS011;34041;51.812;4.622;2023-05-23T14:29:25;10.82;;;3.45;;
48241;SDS011;34041;51.812;4.622;2023-05-23T14:32:25;9.40;;;1.83;;
48241;SDS011;34041;51.812;4.622;2023-05-23T14:35:26;9.27;;;3.13;;
48241;SDS011;34041;51.812;4.622;2023-05-23T14:38:28;9.57;;;2.85;;
48241;SDS011;34041;51.812;4.622;2023-05-23T14:41:28;7.60;;;2.40;;
48241;SDS011;34041;51.812;4.622;2023-05-23T14:44:30;8.77;;;2.80;;
48241;SDS011;34041;51.812;4.622;2023-05-23T14:47:30;10.33;;;3.67;;
48241;SDS011;34041;51.812;4.622;2023-05-23T14:50:31;9.65;;;2.88;;
48241;SDS011;34041;51.812;4.622;2023-05-23T14:53:31;7.72;;;2.35;;
48241;SDS011;34041;51.812;4.622;2023-05-23T14:56:31;9.53;;;3.17;;
48241;SDS011;34041;51.812;4.622;2023-05-23T14:59:32;10.17;;;2.70;;
48241;SDS011;34041;51.812;4.622;2023-05-23T15:02:32;10.10;;;3.38;;
48241;SDS011;34041;51.812;4.622;2023-05-23T15:05:32;10.30;;;2.70;;
48241;SDS011;34041;51.812;4.622;2023-05-23T15:08:32;7.83;;;2.63;;
48241;SDS011;34041;51.812;4.622;2023-05-23T15:11:33;9.75;;;2.90;;
48241;SDS011;34041;51.812;4.622;2023-05-23T15:14:34;8.70;;;2.53;;
48241;SDS011;34041;51.812;4.622;2023-05-23T15:17:34;6.95;;;2.67;;
48241;SDS011;34041;51.812;4.622;2023-05-23T15:20:34;7.13;;;2.28;;
48241;SDS011;34041;51.812;4.622;2023-05-23T15:23:38;8.32;;;2.78;;
48241;SDS011;34041;51.812;4.622;2023-05-23T15:26:38;12.35;;;3.40;;
48241;SDS011;34041;51.812;4.622;2023-05-23T15:29:38;10.63;;;3.07;;
48241;SDS011;34041;51.812;4.622;2023-05-23T15:32:39;10.98;;;2.78;;
48241;SDS011;34041;51.812;4.622;2023-05-23T15:35:40;11.45;;;4.38;;
48241;SDS011;34041;51.812;4.622;2023-05-23T15:38:40;12.52;;;3.45;;
48241;SDS011;34041;51.812;4.622;2023-05-23T15:41:41;10.73;;;2.47;;
48241;SDS011;34041;51.812;4.622;2023-05-23T15:44:41;5.83;;;2.40;;
48241;SDS011;34041;51.812;4.622;2023-05-23T15:47:41;9.32;;;2.97;;
48241;SDS011;34041;51.812;4.622;2023-05-23T15:50:41;15.57;;;3.30;;
48241;SDS011;34041;51.812;4.622;2023-05-23T15:53:42;13.38;;;3.20;;
48241;SDS011;34041;51.812;4.622;2023-05-23T15:56:42;9.87;;;2.70;;
48241;SDS011;34041;51.812;4.622;2023-05-23T15:59:43;14.50;;;2.95;;
48241;SDS011;34041;51.812;4.622;2023-05-23T16:02:43;7.43;;;2.47;;
48241;SDS011;34041;51.812;4.622;2023-05-23T16:05:43;7.30;;;2.40;;
48241;SDS011;34041;51.812;4.622;2023-05-23T16:08:43;8.27;;;2.15;;
48241;SDS011;34041;51.812;4.622;2023-05-23T16:11:44;13.48;;;3.97;;
48241;SDS011;34041;51.812;4.622;2023-05-23T16:14:44;11.80;;;3.78;;
48241;SDS011;34041;51.812;4.622;2023-05-23T16:17:45;9.13;;;3.00;;
48241;SDS011;34041;51.812;4.622;2023-05-23T16:20:45;10.10;;;2.67;;
48241;SDS011;34041;51.812;4.622;2023-05-23T16:23:46;9.93;;;3.22;;
48241;SDS011;34041;51.812;4.622;2023-05-23T16:26:47;13.93;;;3.42;;
48241;SDS011;34041;51.812;4.622;2023-05-23T16:29:47;12.07;;;3.50;;
48241;SDS011;34041;51.812;4.622;2023-05-23T16:32:47;12.50;;;2.70;;
48241;SDS011;34041;51.812;4.622;2023-05-23T16:35:48;8.97;;;2.53;;
48241;SDS011;34041;51.812;4.622;2023-05-23T16:38:48;9.57;;;3.27;;
48241;SDS011;34041;51.812;4.622;2023-05-23T16:41:48;8.13;;;2.57;;
48241;SDS011;34041;51.812;4.622;2023-05-23T16:44:48;15.63;;;3.70;;
48241;SDS011;34041;51.812;4.622;2023-05-23T16:47:49;8.65;;;2.80;;
48241;SDS011;34041;51.812;4.622;2023-05-23T16:50:52;10.02;;;2.45;;
48241;SDS011;34041;51.812;4.622;2023-05-23T16:53:52;11.00;;;3.28;;
48241;SDS011;34041;51.812;4.622;2023-05-23T16:56:52;10.43;;;2.83;;
48241;SDS011;34041;51.812;4.622;2023-05-23T16:59:52;7.82;;;2.10;;
48241;SDS011;34041;51.812;4.622;2023-05-23T17:02:53;16.55;;;3.70;;
48241;SDS011;34041;51.812;4.622;2023-05-23T17:05:53;12.17;;;3.40;;
48241;SDS011;34041;51.812;4.622;2023-05-23T17:08:53;9.75;;;3.65;;
48241;SDS011;34041;51.812;4.622;2023-05-23T17:11:53;9.05;;;3.22;;
48241;SDS011;34041;51.812;4.622;2023-05-23T17:14:54;11.27;;;2.70;;
48241;SDS011;34041;51.812;4.622;2023-05-23T17:17:55;11.03;;;4.10;;
48241;SDS011;34041;51.812;4.622;2023-05-23T17:20:55;13.07;;;3.25;;
48241;SDS011;34041;51.812;4.622;2023-05-23T17:23:55;8.53;;;2.50;;
48241;SDS011;34041;51.812;4.622;2023-05-23T17:26:55;8.50;;;2.47;;
48241;SDS011;34041;51.812;4.622;2023-05-23T17:29:56;9.30;;;3.20;;
48241;SDS011;34041;51.812;4.622;2023-05-23T17:32:56;12.45;;;2.92;;
48241;SDS011;34041;51.812;4.622;2023-05-23T17:35:57;7.43;;;2.83;;
48241;SDS011;34041;51.812;4.622;2023-05-23T17:38:57;12.10;;;3.47;;
48241;SDS011;34041;51.812;4.622;2023-05-23T17:41:57;6.60;;;2.27;;
48241;SDS011;34041;51.812;4.622;2023-05-23T17:44:57;12.83;;;3.50;;
48241;SDS011;34041;51.812;4.622;2023-05-23T17:47:58;15.50;;;3.80;;
48241;SDS011;34041;51.812;4.622;2023-05-23T17:51:02;10.73;;;3.20;;
48241;SDS011;34041;51.812;4.622;2023-05-23T17:54:02;11.25;;;2.38;;
48241;SDS011;34041;51.812;4.622;2023-05-23T17:57:03;7.72;;;2.63;;
48241;SDS011;34041;51.812;4.622;2023-05-23T18:00:04;16.10;;;3.15;;
48241;SDS011;34041;51.812;4.622;2023-05-23T18:03:05;9.75;;;2.70;;
48241;SDS011;34041;51.812;4.622;2023-05-23T18:06:05;11.57;;;2.10;;
48241;SDS011;34041;51.812;4.622;2023-05-23T18:09:05;11.43;;;3.20;;
48241;SDS011;34041;51.812;4.622;2023-05-23T18:12:06;10.03;;;2.63;;
48241;SDS011;34041;51.812;4.622;2023-05-23T18:15:07;8.70;;;2.10;;
48241;SDS011;34041;51.812;4.622;2023-05-23T18:18:07;10.05;;;2.28;;
48241;SDS011;34041;51.812;4.622;2023-05-23T18:21:08;7.25;;;3.15;;